Timeline UpdatesTrip UpdatesNews PostsPvt PostsTravel TipsAdmin PostsConv PostsFollowed PostsChat RequestsBlog PostsPNR Posts

Disclaimer
Search
 
 
Thu Aug 21, 2014 11:47:02 ISTHomeTrainsΣChainsAtlasPNRForumGalleryNewsFAQTripsMembersLoginFeedback
No Recent News for this Train
Other Trains in the News **new
Latest...
Last run over.
Tue Jul 01, 2014 (04:19PM)
⇐ Return Journey: Train# 13112

13111/Lal Quila Express

TRAIN IS CANCELLED
Change Departure Station:
Change Arrival Station:
Post a Train Travel TipPost a Train Travel Tip **new
Post a Comment/Question/Picture/VideoPost a Comment/Question/Picture/Video
Pantry/Catering
✕ NO Pantry Car
✓ Catering Avbl
RSA - Rake Sharing
Rake/Coach Composition
LOCO-S1-B1-SLR-GEN-S2-S3-S4-B2-GEN-GEN-RMS-SLR [S1,B1 detached at MDP] ; :Entry# 618089-32
Loco
WAP4 HOWRAH/GHAZIABAD SHED
News    PNR    Forum    Time-Table    Availability    Fare Chart    Map    Arr/Dep History    Trips    Gallery    ΣChains    X/O    Timeline    
Travel Time: 30h 55m    65 halts    Distance: 1529 km    Avg Speed: 49 km/hr
Type: Mail/Express
Zone: ER/Eastern
Departs @ 20:15 (Avg on time)
Platform# 3
SMTWTFS
Kolkata Chitpur/KOAA 
Arrives @ 03:10 +2 nights (Avg 4h 53m late)
Platform# 7
SMTWTFS
Old Delhi Junction/DLI 

65 halts. 292 intermediate Stations between Kolkata Chitpur and Old Delhi Junction

Show ALL intermediate Stations  Show Old Time-Table

#CodeStation NameX/OArrivesAvgDepartsAvgHaltPFDay#KmSpeedElevZoneAddress
1KOAA»Kolkata Chitpur (5)»  -20:15+0310.0316mERKolkata, West Bengal
2DAKEDakhineswar (2)  20:34-20:35-1m119.96410mERDist - 24 paraganas ( North ), West Bengal
3BWNBarddhaman Junction (8)  21:58+2222:03+225m1198.68434mERDist - Barddhaman, West Bengal
4RNGRaniGanj (4)  23:06+3123:07+331m21186.45492mERRaniganj, West Bengal
5ASNAsansol Junction (7)  23:27+3123:32+355m41204.650113mERDist - bardhaman, West Bengal
6CRJChittaranjan (3)  00:02+3900:03+401m32229.766182mERMihijam, Jharkhand
7JMTJamtara (2)  00:16+3900:17+441m12244.059201mERJamtara, Jharkhand
8MDPMadhupur Junction (4)01:00+4901:40+4940m22286.073254mER06432-224478, Jharkhand
9JSMEJasidih Junction (5)  02:04+5302:09+535m22315.152271mERJasidih, Jharkhand
10JAJJhajha (4)  03:00+4803:05+515m--2359.274143mECRJhajha, Bihar
11JMUJamui (3)  03:26+5303:27+541m--2385.26881mECRState Highway 72, Bihar
12KIULKiul Junction (5)  03:51+5603:55+1:024m--2412.51253mECRDist. Lakhisarai, Bihar
13LKRLuckeesarai Junction (2)  04:02+1:0604:03+1:071m--2413.96552mECRLakhisarai, Bihar
14BRYABarhiya (3)  04:17+1:1704:18+1:181m--2429.05947mECRBarahiya, Bihar
15MKAMokama Junction (4)  04:36+1:2404:40+1:234m--2446.78648mECRPatna, Bihar
16BARHBarh (3)  04:58+1:3104:59+1:351m--2472.66849mECRBarh, Bihar
17BKPBakhtiyarpur Junction (5)  05:15+1:3705:19+1:414m--2490.97751mECRPatna, Bihar
18FUTFatwa (6)  05:37+2:0605:38+2:131m--2513.94653mECRPatna, Bihar
19BKGBanka Ghat (2)  05:46+2:0705:47+2:111m--2520.05356mECRPatna, Bihar
20PNCPatna Saheb (3)  05:54+2:0405:55+2:071m--2526.12059mECRPatna, Bihar
21GZHGulzarbagh (3)  06:04+2:1206:05+2:141m--2529.22855mECRPatna, Bihar
22RJPBRajendra Nagar Bihar (4)  06:14+1:5706:16+1:572m--2533.4555mECRPatna 800001, Bihar
23PNBEPatna Junction (10)  06:50+1:3307:00+1:3610m42536.03857mECRPatna 800001, Bihar
24DNRDanapur (5)  07:15+2:1107:35+2:1620m--2545.48758mECRKhagaul, Bihar
25BTABihta (2)  07:47+2:2407:48+2:261m--2562.75862mECRDistt: Patna, Bihar
26KWRKoelwar (2)  07:57-07:58-1m--2571.54365mECRNational Highway 30, Bihar
27KUAKulharia (2)  08:03+2:2608:04+2:281m--2575.05461mECRChandi Sahar Rd, Bihar
28ARAAra Junction (3)  08:15+2:1908:20+2:195m--2584.99263mECRarrah( 06182-233411), Bihar
29BEABihiya (3)  08:34+2:3508:35+2:431m--2606.35167mECRBehea, Bihar
30BYNBanahi (2)  08:42+2:4608:43+2:461m--2612.35967mECRBanahi, Bihar
31RPRRaghunathpur (4)  08:52+2:5108:53+2:521m--2621.17469mECRRaghunathpur, Bihar
32DUREDumraon (3)  09:06+2:3209:07+2:371m--2637.12970mECRDumraon, Bihar
33BXRBuxar (3)  09:41+2:4509:46+2:515m22653.47367mECRBuxar, Bihar
34CSAChausa (2)  09:55+2:3609:56+2:381m--2664.44368mECRState Highway 14, Bihar
35GMRGahmar (2)  10:09+2:5110:10+2:521m--2673.63868mECRDistt: Ghazipur, Uttar Pradesh
36BWHBhadaura (2)  10:23+2:4610:24+2:491m--2681.84769mECRGhazipur, Uttar Pradesh
37DLNDildarnagar Junction (2)  10:34+2:3710:36+2:372m--2689.64072mECRDildarnagar, Uttar Pradesh
38ZNAZamania (2)  10:56+2:4910:57+2:511m--2703.13877mECRGhazipur, Uttar Pradesh
39MGSMughal Sarai Junction (8)  12:07+2:0012:27+2:0220m42747.35383mECRMughalsarai 232101, Uttar Pradesh
40CARChunar Junction (5)  13:03+3:1313:04+3:171m22779.25485mNCRChunar Junction, Uttar Pradesh
41MZPMirzapur (3)  13:39+3:3913:40+3:421m--2810.54088mNCRMirzapur, Uttar Pradesh
42BDLVindhyachal (3)  13:51+3:4413:52+3:471m--2817.87288mNCRMirzapur, Uttar Pradesh
43MNFManda Road  14:15+3:5514:16+3:561m--2845.46593mNCRNH 76, Uttar Pradesh
44MJAMeja Road (4)  14:31+4:0814:32+4:091m--2861.67294mNCRDistrict Allahabad, Uttar Pradesh
45NYNNaini Junction (4)  14:58+4:2415:00+4:252m22892.62198mNCRAllahabad, Uttar Pradesh
46ALDAllahabad Junction (10)  15:20+3:4615:30+3:4810m32899.760100mNCRAllahabad 211003, Uttar Pradesh
47BREBharwari  16:07+4:3416:08+4:371m--2936.864108mNCRBharwari, Uttar Pradesh
48SROSirathu (2)  16:27+4:1716:28+4:181m12956.978109mNCRSirathu, Uttar Pradesh
49KGAKhaga (3)  16:47+4:4116:48+4:461m--2981.767114mNCRFatehpur, Uttar Pradesh
50RUBRasulabad  17:01+4:4617:02+4:251m--2996.355118mNCRRasulabad, Uttar Pradesh
51FTPFatehpur (3)  17:24+4:4917:25+4:541m321016.469120mNCRFatehpur, Uttar Pradesh
52MWHMalwan (2)  17:39+4:5617:40+4:321m--21032.665122mNCRFatehpur, Uttar Pradesh
53BKOBindki Road  17:54+4:3817:55+4:431m--21047.753124mNCRFatehpur, Uttar Pradesh
54KBNKarbigwan  18:09+4:4418:10+4:511m--21060.045121mNCRFatehpur, Uttar Pradesh
55CNBKanpur Central (10)  18:55+3:5519:05+3:5810m--21094.019128mNCRKANPUR-208 001, Uttar Pradesh
56GOYGovindpuri Junction (2)  19:17+5:1719:18+5:171m121097.846129mNCRKANPUR-208 006, Uttar Pradesh
57PNKPanki (3)  19:28+5:1419:29+5:161m--21105.578129mNCRKANPUR-208 020, Uttar Pradesh
58PHDPhaphund (4)  20:24+4:1120:25+4:171m321177.199146mNCRdist. Auraiya, Uttar Pradesh
59ETWEtawah (5)  20:59+5:1321:00+5:201m221233.385154mNCRDistt. Etawah, Uttar Pradesh
60SKBShikohabad Junction (4)  21:39+5:1221:40+5:151m321288.729166mNCRDistrict Firozabad, Uttar Pradesh
61FZDFirozabad (4)  22:21+4:5022:22+4:561m321308.643164mNCRFirozabad, Uttar Pradesh
62TDLTundla Junction (5)  22:45+5:1322:55+5:2610m221325.182167mNCRDistt.Firozabad, Uttar Pradesh
63HRSHathras Junction (3)  23:30+5:2123:31+5:291m--21373.167183mNCRMahamaya Nagar(05722-242803), Uttar Pradesh
64ALJNAligarh Junction (4)  23:58+5:1800:03+5:245m321403.371192mNCRAligarh, Uttar Pradesh
65KRJKhurja Junction (4)  00:40+6:0400:45+6:025m231446.838199mNCRBulandshahr, Uttar Pradesh
66GZBGhaziabad Junction (6)  02:23+4:3002:25+4:302m531509.427217mNRGhaziabad, Uttar Pradesh
67DLI•Old Delhi Junction (16)•  03:10+4:53-731529.5-219mNRNear Chandni Chowk Metro Station, Delhi NCT
Scroll to Top
Scroll to Bottom